Time;durP1;ratioP1;P1;durP2;ratioP2;P2;SDS_P1;SDS_P2;PMS_P1;PMS_P2;Temp;Humidity;BMP_temperature;BMP_pressure;BME280_temperature;BME280_humidity;BME280_pressure;Samples;Min_cycle;Max_cycle;Signal;HPM_P1;HPM_P2
2022/04/01 00:01:14;;;;;;;32.05;11.70;;;;;;;6.29;100.00;95907.09;5006122;28;20052;-57
2022/04/01 00:03:39;;;;;;;35.05;12.57;;;;;;;6.14;100.00;95906.19;5009578;28;20089;-58
2022/04/01 00:06:04;;;;;;;35.10;12.52;;;;;;;6.47;100.00;95899.16;5004748;28;20040;-57
2022/04/01 00:08:29;;;;;;;31.23;11.40;;;;;;;6.14;100.00;95905.38;5007389;28;20144;-56
2022/04/01 00:10:55;;;;;;;37.33;12.88;;;;;;;6.39;100.00;95901.38;5006371;28;20049;-59
2022/04/01 00:13:20;;;;;;;30.83;11.15;;;;;;;6.62;100.00;95897.44;5007447;28;20029;-56
2022/04/01 00:15:46;;;;;;;33.95;11.82;;;;;;;6.55;100.00;95902.97;5010788;28;20068;-57
2022/04/01 00:18:11;;;;;;;28.40;9.88;;;;;;;6.56;100.00;95898.63;5009188;28;20025;-58
2022/04/01 00:20:37;;;;;;;35.00;12.43;;;;;;;6.78;100.00;95897.34;5009412;28;20105;-56
2022/04/01 00:23:03;;;;;;;35.65;12.70;;;;;;;6.07;100.00;95907.47;5007947;28;20486;-57
2022/04/01 00:25:29;;;;;;;35.97;12.27;;;;;;;6.34;100.00;95904.22;5006149;28;20037;-56
2022/04/01 00:27:54;;;;;;;34.03;12.32;;;;;;;5.58;100.00;95905.81;5008333;28;20468;-57
2022/04/01 00:30:20;;;;;;;34.65;12.93;;;;;;;6.07;100.00;95901.47;5005920;28;20021;-57
2022/04/01 00:32:45;;;;;;;30.05;12.10;;;;;;;6.59;100.00;95898.44;5006519;28;20042;-55
2022/04/01 00:35:10;;;;;;;37.65;13.13;;;;;;;6.27;100.00;95900.34;5002567;28;20441;-56
2022/04/01 00:37:38;;;;;;;28.75;12.35;;;;;;;6.43;100.00;95887.31;5009932;28;20024;-56
2022/04/01 00:40:04;;;;;;;37.10;13.35;;;;;;;5.96;100.00;95891.72;5006878;28;20051;-56
2022/04/01 00:42:30;;;;;;;34.95;13.13;;;;;;;6.16;100.00;95891.41;5007768;28;20034;-57
2022/04/01 00:44:56;;;;;;;35.03;12.32;;;;;;;6.54;100.00;95887.53;5004822;28;20108;-57
2022/04/01 00:47:21;;;;;;;42.97;13.68;;;;;;;6.05;100.00;95892.97;5005532;28;20778;-56
2022/04/01 00:49:48;;;;;;;33.38;12.88;;;;;;;6.15;100.00;95888.91;5003897;28;20585;-57
2022/04/01 00:52:19;;;;;;;33.67;12.60;;;;;;;6.57;100.00;95895.13;5003928;28;20042;-56
2022/04/01 00:54:45;;;;;;;39.33;13.55;;;;;;;6.12;100.00;95896.84;5005267;28;20125;-57
2022/04/01 00:57:13;;;;;;;36.00;13.35;;;;;;;6.07;100.00;95901.47;5004788;28;20125;-57
2022/04/01 00:59:39;;;;;;;27.45;11.90;;;;;;;6.39;100.00;95901.38;5007621;28;20069;-57
2022/04/01 01:02:05;;;;;;;33.15;13.18;;;;;;;6.18;100.00;95894.75;5004506;28;20120;-57
2022/04/01 01:04:31;;;;;;;31.83;12.18;;;;;;;6.05;100.00;95891.19;5004153;28;20026;-55
2022/04/01 01:06:58;;;;;;;37.53;13.82;;;;;;;6.00;100.00;95889.78;5005008;28;20397;-58
2022/04/01 01:09:25;;;;;;;40.40;13.60;;;;;;;5.96;100.00;95884.78;5001579;28;20039;-56
2022/04/01 01:11:52;;;;;;;33.83;13.05;;;;;;;5.89;100.00;95891.19;5006641;28;20049;-58
2022/04/01 01:14:24;;;;;;;40.25;14.05;;;;;;;5.78;100.00;95885.78;5006448;28;20050;-56
2022/04/01 01:16:49;;;;;;;;;;;;;;;5.75;100.00;95885.94;5006203;28;20065;-57
2022/04/01 01:19:16;;;;;;;33.45;13.20;;;;;;;6.00;100.00;95882.03;5004089;28;19983;-56
2022/04/01 01:21:43;;;;;;;36.10;13.57;;;;;;;6.29;100.00;95876.00;5003445;28;20836;-56
2022/04/01 01:24:11;;;;;;;36.78;13.13;;;;;;;5.76;100.00;95882.44;5003706;28;20033;-58
2022/04/01 01:26:37;;;;;;;36.72;12.52;;;;;;;6.12;100.00;95879.56;5004250;28;20051;-58
2022/04/01 01:29:04;;;;;;;36.75;13.35;;;;;;;6.16;100.00;95885.41;5008111;28;20022;-57
2022/04/01 01:31:30;;;;;;;34.63;13.30;;;;;;;6.15;100.00;95878.56;5008187;28;20761;-57
2022/04/01 01:33:57;;;;;;;39.67;14.20;;;;;;;6.01;100.00;95875.91;5007394;28;20029;-56
2022/04/01 01:36:26;;;;;;;33.58;14.13;;;;;;;5.82;100.00;95879.50;5005037;28;20588;-56
2022/04/01 01:38:51;;;;;;;35.70;13.45;;;;;;;5.73;100.00;95888.59;5006280;28;20022;-55
2022/04/01 01:41:17;;;;;;;34.30;13.82;;;;;;;5.91;100.00;95885.94;5006780;28;20053;-56
2022/04/01 01:43:42;;;;;;;35.90;12.88;;;;;;;5.41;100.00;95892.97;5006283;28;20569;-55
2022/04/01 01:46:09;;;;;;;35.17;13.57;;;;;;;5.80;100.00;95886.53;5007611;28;20499;-57
2022/04/01 01:48:34;;;;;;;31.52;13.15;;;;;;;6.06;100.00;95894.63;5004960;28;20100;-55
2022/04/01 01:56:28;;;;;;;35.63;12.82;;;;;;;5.85;100.00;95881.94;5005306;28;20096;-54
2022/04/01 01:58:54;;;;;;;41.80;14.55;;;;;;;5.86;100.00;95886.16;5004105;28;20021;-55
2022/04/01 02:01:20;;;;;;;34.35;13.85;;;;;;;5.90;100.00;95879.06;5003965;28;20046;-58
2022/04/01 02:03:45;;;;;;;37.47;13.65;;;;;;;5.49;100.00;95875.28;5004952;28;20052;-59
2022/04/01 02:06:10;;;;;;;32.72;14.60;;;;;;;5.50;100.00;95881.31;5005574;28;20040;-58
2022/04/01 02:08:36;;;;;;;36.30;14.35;;;;;;;5.45;100.00;95873.78;5009083;28;20026;-58
2022/04/01 02:11:02;;;;;;;42.17;14.70;;;;;;;5.75;100.00;95878.19;5006687;28;20121;-58
2022/04/01 02:13:27;;;;;;;32.78;14.10;;;;;;;5.42;100.00;95881.69;5003324;28;20113;-58
2022/04/01 02:15:54;;;;;;;38.40;14.27;;;;;;;5.49;100.00;95874.47;5003258;28;20038;-56
2022/04/01 02:18:20;;;;;;;39.30;14.57;;;;;;;5.68;100.00;95882.03;5004723;28;20602;-57
2022/04/01 02:20:46;;;;;;;42.42;14.88;;;;;;;5.70;100.00;95878.44;5005407;28;20037;-56
2022/04/01 02:23:12;;;;;;;38.45;14.38;;;;;;;5.49;100.00;95889.97;5003055;28;20022;-57
2022/04/01 02:25:37;;;;;;;36.42;15.15;;;;;;;5.42;100.00;95879.13;5006124;28;20037;-55
2022/04/01 02:28:04;;;;;;;46.70;15.27;;;;;;;5.26;100.00;95878.31;5002413;28;20026;-55
2022/04/01 02:30:29;;;;;;;43.97;15.73;;;;;;;5.28;100.00;95874.72;5003134;28;20562;-54
2022/04/01 02:32:54;;;;;;;41.70;14.85;;;;;;;4.92;100.00;95880.06;5004502;28;20022;-54
2022/04/01 02:35:20;;;;;;;42.80;14.65;;;;;;;5.27;100.00;95879.97;5005023;28;20101;-55
2022/04/01 02:37:46;;;;;;;44.17;15.68;;;;;;;5.34;100.00;95882.13;5003024;28;20044;-55
2022/04/01 02:40:12;;;;;;;42.63;15.30;;;;;;;5.31;100.00;95871.97;5004574;28;20032;-55
2022/04/01 02:42:38;;;;;;;44.50;15.25;;;;;;;5.19;100.00;95876.03;5005701;28;20796;-55
2022/04/01 02:45:04;;;;;;;39.22;13.85;;;;;;;4.78;100.00;95876.47;5002923;28;20420;-55
2022/04/01 02:47:29;;;;;;;37.85;14.10;;;;;;;5.03;100.00;95870.00;5004643;28;20090;-55
2022/04/01 02:49:55;;;;;;;41.65;15.80;;;;;;;5.24;100.00;95880.09;5002758;28;20025;-55
2022/04/01 02:52:20;;;;;;;50.05;16.10;;;;;;;4.95;100.00;95865.25;4997099;28;20053;-56
2022/04/01 02:54:46;;;;;;;45.55;15.50;;;;;;;4.92;100.00;95874.91;5000413;28;20029;-57
2022/04/01 02:57:13;;;;;;;44.58;15.70;;;;;;;5.13;100.00;95870.38;5005621;28;20090;-56
2022/04/01 02:59:38;;;;;;;45.28;15.20;;;;;;;5.05;100.00;95872.50;5003392;28;20040;-56
2022/04/01 03:02:04;;;;;;;43.83;15.98;;;;;;;5.12;100.00;95872.09;5005656;28;20041;-56
2022/04/01 03:04:29;;;;;;;45.97;14.38;;;;;;;5.46;100.00;95878.06;5007470;28;20037;-55
2022/04/01 03:06:55;;;;;;;39.58;14.18;;;;;;;4.99;100.00;95871.09;5005136;28;20037;-57
2022/04/01 03:09:20;;;;;;;40.60;14.57;;;;;;;5.21;100.00;95876.78;5001423;28;20062;-55
2022/04/01 03:11:46;;;;;;;51.15;14.30;;;;;;;5.48;100.00;95878.81;5005468;28;20049;-56
2022/04/01 03:14:12;;;;;;;50.03;17.10;;;;;;;5.21;100.00;95881.94;4999768;28;20065;-55
2022/04/01 03:16:38;;;;;;;50.95;16.13;;;;;;;5.64;100.00;95878.78;4998097;28;20069;-56
2022/04/01 03:19:08;;;;;;;53.83;17.60;;;;;;;5.28;100.00;95886.81;5002618;28;20018;-56
2022/04/01 03:21:35;;;;;;;52.97;16.08;;;;;;;5.44;100.00;95892.81;5005065;28;20825;-56
2022/04/01 03:24:01;;;;;;;55.13;14.45;;;;;;;5.71;100.00;95898.22;5004361;28;20044;-57
2022/04/01 03:26:27;;;;;;;64.93;18.30;;;;;;;5.39;100.00;95889.66;5004032;28;20040;-57
2022/04/01 03:28:52;;;;;;;54.38;17.70;;;;;;;5.30;100.00;95900.47;5002518;28;20030;-55
2022/04/01 03:31:18;;;;;;;57.97;18.63;;;;;;;5.34;100.00;95907.97;5002491;28;20131;-56
2022/04/01 03:33:44;;;;;;;65.35;19.55;;;;;;;5.12;100.00;95902.28;4999078;28;20484;-55
2022/04/01 03:36:10;;;;;;;52.45;17.92;;;;;;;5.05;100.00;95901.75;5002959;28;20042;-57
2022/04/01 03:38:37;;;;;;;52.80;17.08;;;;;;;5.20;100.00;95906.13;5000969;28;20567;-55
2022/04/01 03:41:05;;;;;;;58.97;18.30;;;;;;;5.31;100.00;95902.13;5004743;28;20077;-56
2022/04/01 03:43:31;;;;;;;70.68;19.90;;;;;;;5.16;100.00;95909.78;5001320;28;20651;-55
2022/04/01 03:45:58;;;;;;;64.43;17.80;;;;;;;5.22;100.00;95899.13;5003073;28;20184;-56
2022/04/01 03:48:29;;;;;;;48.08;16.05;;;;;;;5.20;100.00;95905.28;5006732;28;20460;-56
2022/04/01 03:50:59;;;;;;;49.72;16.52;;;;;;;5.07;100.00;95893.94;5007285;28;20073;-57
2022/04/01 03:53:28;;;;;;;48.72;16.50;;;;;;;5.27;100.00;95895.47;5005105;28;20026;-55
2022/04/01 03:55:58;;;;;;;50.17;16.13;;;;;;;5.12;100.00;95890.19;5006369;28;20041;-56
2022/04/01 03:58:34;;;;;;;50.30;16.33;;;;;;;4.76;100.00;95891.22;5001650;28;20030;-56
2022/04/01 04:01:03;;;;;;;56.22;16.60;;;;;;;4.89;100.00;95895.72;5001581;28;20061;-57
2022/04/01 04:03:31;;;;;;;47.30;15.70;;;;;;;4.99;100.00;95892.59;5000930;28;20749;-57
2022/04/01 04:05:58;;;;;;;50.53;16.05;;;;;;;4.97;100.00;95888.44;4998639;28;20039;-56
2022/04/01 04:08:24;;;;;;;47.80;15.63;;;;;;;4.73;100.00;95893.94;5000691;28;20564;-58
2022/04/01 04:10:51;;;;;;;41.08;13.40;;;;;;;5.13;100.00;95894.47;5003095;28;20043;-56
2022/04/01 04:13:18;;;;;;;46.50;14.80;;;;;;;5.19;100.00;95894.13;5001760;28;20537;-57
2022/04/01 04:15:51;;;;;;;37.50;10.52;;;;;;;5.45;100.00;95904.81;5002223;28;20523;-55
2022/04/01 04:18:19;;;;;;;50.63;15.10;;;;;;;5.06;100.00;95897.44;4998335;28;20025;-58
2022/04/01 04:21:12;;;;;;;46.30;14.25;;;;;;;5.12;100.00;95902.28;5001028;28;20050;-56
2022/04/01 04:23:44;;;;;;;45.38;15.02;;;;;;;4.95;100.00;95895.44;4997213;28;20092;-56
2022/04/01 04:26:13;;;;;;;56.50;15.27;;;;;;;5.00;100.00;95902.00;4999076;28;20558;-54
2022/04/01 04:28:40;;;;;;;41.50;12.27;;;;;;;5.34;100.00;95905.38;5001891;28;20695;-56
2022/04/01 04:31:08;;;;;;;49.08;15.35;;;;;;;5.12;100.00;95908.28;5001920;28;20045;-55
2022/04/01 04:33:41;;;;;;;48.85;15.25;;;;;;;4.56;100.00;95909.47;5005907;28;20068;-57
2022/04/01 04:36:10;;;;;;;58.28;16.52;;;;;;;4.40;100.00;95910.22;4999297;28;20042;-54
2022/04/01 04:38:37;;;;;;;47.70;15.13;;;;;;;4.67;100.00;95917.50;4999678;28;20660;-57
2022/04/01 04:41:08;;;;;;;57.88;16.23;;;;;;;4.50;100.00;95917.50;5003714;28;20049;-57
2022/04/01 04:43:38;;;;;;;43.88;13.15;;;;;;;4.44;100.00;95923.81;5003887;28;20059;-57
2022/04/01 04:46:05;;;;;;;42.58;12.75;;;;;;;4.44;100.00;95927.22;5005940;28;20034;-57
2022/04/01 04:48:33;;;;;;;38.50;12.32;;;;;;;4.31;100.00;95923.59;5007242;28;20026;-56
2022/04/01 04:51:02;;;;;;;31.92;13.40;;;;;;;4.22;100.00;95934.38;5005870;28;20041;-56
2022/04/01 04:53:30;;;;;;;41.65;11.98;;;;;;;4.73;100.00;95942.19;5006881;28;20084;-58
2022/04/01 04:55:59;;;;;;;34.03;12.02;;;;;;;4.50;100.00;95935.59;5005359;28;20670;-56
2022/04/01 04:58:30;;;;;;;42.13;13.13;;;;;;;4.18;100.00;95940.59;5007582;28;20030;-55
2022/04/01 05:01:02;;;;;;;34.72;10.95;;;;;;;4.48;100.00;95937.41;5006051;28;20648;-55
2022/04/01 05:03:46;;;;;;;34.67;10.93;;;;;;;4.42;100.00;95944.53;5006131;28;20033;-56
2022/04/01 05:06:17;;;;;;;39.28;12.48;;;;;;;4.09;100.00;95946.19;5006513;28;20450;-55
2022/04/01 05:08:54;;;;;;;46.67;13.65;;;;;;;4.40;100.00;95953.28;5007753;28;20084;-56
2022/04/01 05:11:34;;;;;;;34.10;11.65;;;;;;;4.51;100.00;95958.75;5005167;28;20522;-56
2022/04/01 05:14:00;;;;;;;34.90;11.52;;;;;;;4.20;100.00;95967.16;5008395;28;20056;-57
2022/04/01 05:16:45;;;;;;;38.60;12.48;;;;;;;4.43;100.00;95961.72;5005370;28;20041;-55
2022/04/01 05:19:12;;;;;;;35.90;11.68;;;;;;;4.48;100.00;95965.81;5008909;28;20041;-56
2022/04/01 05:21:58;;;;;;;39.30;12.00;;;;;;;4.58;100.00;95974.78;5007035;28;20099;-55
2022/04/01 05:24:30;;;;;;;35.83;11.88;;;;;;;4.62;100.00;95976.28;5004469;28;20018;-57
2022/04/01 05:26:57;;;;;;;39.30;12.55;;;;;;;4.09;100.00;95974.56;5004576;28;20049;-57
2022/04/01 05:29:26;;;;;;;30.02;9.57;;;;;;;4.79;100.00;95976.25;5011095;28;20163;-56
2022/04/01 05:32:05;;;;;;;41.08;12.48;;;;;;;4.73;100.00;95989.50;5005491;28;20072;-56
2022/04/01 05:34:45;;;;;;;38.83;12.55;;;;;;;4.38;100.00;95989.47;5007657;28;20026;-57
2022/04/01 05:37:13;;;;;;;42.47;12.65;;;;;;;4.74;100.00;95991.19;5009515;28;20044;-56
2022/04/01 05:39:40;;;;;;;34.97;11.13;;;;;;;4.47;100.00;95989.94;5002396;28;20742;-56
2022/04/01 05:42:09;;;;;;;39.15;10.60;;;;;;;4.79;100.00;95994.34;5002233;28;20036;-55
2022/04/01 05:44:36;;;;;;;36.42;11.80;;;;;;;4.67;100.00;95994.97;5002637;28;20014;-59
2022/04/01 05:47:03;;;;;;;38.20;11.80;;;;;;;3.64;100.00;95995.53;5003309;28;20121;-56
2022/04/01 05:49:30;;;;;;;34.25;11.75;;;;;;;4.25;100.00;96009.06;5005420;28;20030;-56
2022/04/01 05:51:56;;;;;;;32.58;11.38;;;;;;;4.10;100.00;96007.19;5006334;28;20496;-57
2022/04/01 05:54:23;;;;;;;43.28;12.20;;;;;;;4.42;100.00;96003.91;5001939;28;20033;-57
2022/04/01 05:56:49;;;;;;;43.35;12.57;;;;;;;4.20;100.00;96003.28;5001283;28;20113;-57
2022/04/01 05:59:17;;;;;;;39.75;12.40;;;;;;;4.39;100.00;96006.66;5007380;28;20675;-57
2022/04/01 06:01:48;;;;;;;37.50;10.60;;;;;;;5.07;100.00;96008.44;5005018;28;20815;-57
2022/04/01 06:04:47;;;;;;;40.85;12.25;;;;;;;4.77;100.00;96010.84;5005949;28;20026;-55
2022/04/01 06:07:32;;;;;;;42.88;11.55;;;;;;;4.62;100.00;96012.44;5004916;28;20092;-54
2022/04/01 06:10:05;;;;;;;36.88;11.93;;;;;;;4.47;100.00;96013.16;5005705;28;20530;-57
2022/04/01 06:13:11;;;;;;;33.22;11.35;;;;;;;3.97;100.00;96009.50;5002525;28;20170;-57
2022/04/01 06:16:01;;;;;;;37.00;11.70;;;;;;;4.41;100.00;96020.31;4984569;28;21064;-55
2022/04/01 06:18:48;;;;;;;42.28;12.25;;;;;;;4.26;100.00;96026.19;5004776;28;20045;-56
2022/04/01 06:21:15;;;;;;;32.03;11.05;;;;;;;4.52;100.00;96016.38;5006043;28;20630;-56
2022/04/01 06:23:49;;;;;;;43.40;12.45;;;;;;;4.66;100.00;96024.28;5003020;28;20038;-55
2022/04/01 06:26:15;;;;;;;41.70;11.98;;;;;;;5.00;100.00;96032.94;5002405;28;20072;-55
2022/04/01 06:29:10;;;;;;;37.40;12.05;;;;;;;4.41;100.00;96029.78;5003688;28;20121;-55
2022/04/01 06:31:36;;;;;;;41.75;12.02;;;;;;;4.50;100.00;96034.50;5007493;28;20044;-56
2022/04/01 06:34:08;;;;;;;35.72;12.32;;;;;;;4.44;100.00;96040.81;5003834;28;20029;-56
2022/04/01 06:36:44;;;;;;;42.40;11.07;;;;;;;6.06;100.00;96042.13;5003231;28;20503;-57
2022/04/01 06:39:13;;;;;;;47.35;12.70;;;;;;;5.74;100.00;96049.84;5003204;28;20527;-56
2022/04/01 06:41:46;;;;;;;43.42;13.38;;;;;;;5.73;100.00;96048.16;5002878;28;20042;-55
2022/04/01 06:44:12;;;;;;;47.08;13.13;;;;;;;5.53;100.00;96046.59;4993565;28;20587;-55
2022/04/01 06:46:37;;;;;;;49.65;11.88;;;;;;;6.71;100.00;96049.75;4990933;28;20111;-57
2022/04/01 06:49:08;;;;;;;38.45;11.50;;;;;;;5.16;100.00;96039.00;4995476;28;20079;-55
2022/04/01 06:51:35;;;;;;;43.25;12.45;;;;;;;5.65;100.00;96040.81;4993774;28;20105;-57
2022/04/01 06:54:00;;;;;;;41.85;12.45;;;;;;;5.60;100.00;96038.44;4996995;28;20439;-55
2022/04/01 06:56:26;;;;;;;33.67;11.70;;;;;;;5.70;100.00;96045.75;4995728;28;20519;-54
2022/04/01 06:58:52;;;;;;;37.08;12.55;;;;;;;5.50;100.00;96047.63;4992271;28;20026;-55
2022/04/01 07:01:17;;;;;;;34.22;11.68;;;;;;;5.67;100.00;96048.47;4992991;28;20038;-56
2022/04/01 07:03:42;;;;;;;35.75;11.75;;;;;;;5.15;100.00;96047.66;4991271;28;20120;-57
2022/04/01 07:06:08;;;;;;;38.85;12.48;;;;;;;5.08;100.00;96051.47;4993017;28;20049;-57
2022/04/01 07:08:34;;;;;;;38.85;12.95;;;;;;;4.82;100.00;96040.69;4994967;28;20029;-58
2022/04/01 07:10:59;;;;;;;44.10;13.43;;;;;;;4.75;100.00;96049.66;4995990;28;20423;-55
2022/04/01 07:13:24;;;;;;;38.38;11.88;;;;;;;4.63;100.00;96050.25;4994084;28;20032;-55
2022/04/01 07:15:50;;;;;;;44.25;12.60;;;;;;;4.73;100.00;96050.66;4991521;28;20041;-54
2022/04/01 07:18:18;;;;;;;44.13;12.82;;;;;;;4.46;100.00;96053.63;4996299;28;20080;-55
2022/04/01 07:20:43;;;;;;;42.78;12.90;;;;;;;4.24;100.00;96051.25;4996393;28;20030;-55
2022/04/01 07:23:08;;;;;;;40.45;12.77;;;;;;;4.90;100.00;96052.41;4993208;28;20156;-55
2022/04/01 07:25:34;;;;;;;36.63;12.57;;;;;;;4.63;100.00;96048.50;4993680;28;20137;-54
2022/04/01 07:27:59;;;;;;;41.25;13.10;;;;;;;4.87;100.00;96047.38;4991827;28;20033;-55
2022/04/01 07:30:25;;;;;;;41.58;13.30;;;;;;;4.89;100.00;96053.28;4994532;28;20113;-56
2022/04/01 07:32:57;;;;;;;37.95;10.32;;;;;;;5.51;100.00;96053.59;4994814;28;20022;-57
2022/04/01 07:35:23;;;;;;;43.67;13.27;;;;;;;4.94;100.00;96059.06;4990387;28;20042;-55
2022/04/01 07:37:48;;;;;;;38.10;12.65;;;;;;;4.79;100.00;96055.50;4994804;28;20730;-54
2022/04/01 07:40:13;;;;;;;45.50;12.43;;;;;;;5.14;100.00;96056.31;4991395;28;20057;-53
2022/04/01 07:42:39;;;;;;;40.03;13.43;;;;;;;4.81;100.00;96064.84;4994259;28;20459;-54
2022/04/01 07:45:06;;;;;;;51.15;14.43;;;;;;;4.81;100.00;96064.84;4992233;28;20034;-55
2022/04/01 07:47:33;;;;;;;39.90;13.60;;;;;;;5.37;100.00;96073.25;4993913;28;20025;-55
2022/04/01 07:50:01;;;;;;;38.15;12.57;;;;;;;4.67;100.00;96069.84;4996930;28;20034;-53
2022/04/01 07:52:29;;;;;;;39.08;12.25;;;;;;;5.07;100.00;96070.47;4994044;28;21544;-56
2022/04/01 07:54:54;;;;;;;38.30;11.70;;;;;;;5.27;100.00;96069.47;4993892;28;20725;-55
2022/04/01 07:57:20;;;;;;;31.45;9.20;;;;;;;7.48;100.00;96058.22;4992098;28;20468;-56
2022/04/01 07:59:46;;;;;;;33.35;9.68;;;;;;;8.38;100.00;96069.19;4994907;28;20088;-54
2022/04/01 08:02:12;;;;;;;35.80;10.38;;;;;;;7.19;100.00;96065.16;4994984;28;20038;-56
2022/04/01 08:04:37;;;;;;;29.88;8.38;;;;;;;10.01;100.00;96059.28;4994756;28;20029;-56
2022/04/01 08:07:03;;;;;;;31.67;8.63;;;;;;;10.48;100.00;96061.28;4995059;28;20096;-56
2022/04/01 08:09:28;;;;;;;32.17;9.45;;;;;;;11.02;100.00;96054.78;4993840;28;20038;-55
2022/04/01 08:11:54;;;;;;;33.85;10.02;;;;;;;9.28;100.00;96054.72;4992964;28;20458;-54
2022/04/01 08:14:20;;;;;;;27.88;9.13;;;;;;;8.12;100.00;96074.25;4992996;28;20022;-55
2022/04/01 08:16:48;;;;;;;24.27;9.25;;;;;;;8.26;100.00;96071.63;4994216;28;20496;-55
2022/04/01 08:19:14;;;;;;;31.20;11.63;;;;;;;7.45;100.00;96067.03;4997729;28;20300;-55
2022/04/01 08:21:39;;;;;;;28.00;9.75;;;;;;;8.11;100.00;96075.19;4999308;28;20042;-56
2022/04/01 08:24:07;;;;;;;29.50;10.30;;;;;;;7.69;100.00;96074.28;4995313;28;20022;-56
2022/04/01 08:26:33;;;;;;;27.45;10.45;;;;;;;6.54;100.00;96077.44;4997016;28;20053;-56
2022/04/01 08:28:58;;;;;;;34.83;11.20;;;;;;;7.62;100.00;96078.19;4995310;28;20514;-56
2022/04/01 08:31:25;;;;;;;30.55;9.75;;;;;;;7.60;100.00;96078.25;4997206;28;20042;-54
2022/04/01 08:33:50;;;;;;;23.65;9.07;;;;;;;7.87;100.00;96075.78;4997079;28;20026;-56
2022/04/01 08:36:17;;;;;;;26.52;9.50;;;;;;;7.74;100.00;96074.84;4995610;28;20476;-55
2022/04/01 08:38:43;;;;;;;23.50;8.40;;;;;;;8.49;100.00;96082.38;4999514;28;20137;-56
2022/04/01 08:41:09;;;;;;;23.63;8.35;;;;;;;7.70;100.00;96082.00;4997161;28;20048;-58
2022/04/01 08:43:39;;;;;;;25.58;8.38;;;;;;;9.40;100.00;96081.69;4996514;28;20131;-57
2022/04/01 08:46:07;;;;;;;24.92;9.20;;;;;;;6.91;100.00;96083.13;4995074;28;20479;-56
2022/04/01 08:48:34;;;;;;;25.83;9.10;;;;;;;7.86;100.00;96089.66;4999443;28;20044;-56
2022/04/01 08:51:00;;;;;;;26.02;9.93;;;;;;;7.29;100.00;96097.41;4998866;28;20038;-57
2022/04/01 08:53:25;;;;;;;25.00;8.95;;;;;;;7.31;100.00;96100.72;4997480;28;20025;-55
2022/04/01 08:55:53;;;;;;;27.00;9.18;;;;;;;7.05;100.00;96097.06;4995840;28;20088;-56
2022/04/01 08:58:19;;;;;;;24.92;8.68;;;;;;;7.67;100.00;96107.28;4998502;28;20022;-55
2022/04/01 09:00:46;;;;;;;26.55;8.85;;;;;;;6.65;100.00;96105.31;4997005;28;20046;-58
2022/04/01 09:03:13;;;;;;;26.52;9.50;;;;;;;6.98;100.00;96106.94;4996480;28;20403;-56
2022/04/01 09:05:50;;;;;;;33.80;9.60;;;;;;;7.03;100.00;96102.31;4996492;28;20034;-57
2022/04/01 09:08:30;;;;;;;24.58;9.13;;;;;;;7.01;100.00;96109.34;4994838;28;21812;-56
2022/04/01 09:11:08;;;;;;;28.65;9.40;;;;;;;6.71;100.00;96110.16;4997251;28;20044;-56
2022/04/01 09:13:53;;;;;;;26.42;8.98;;;;;;;6.90;100.00;96111.72;4997229;28;20018;-57
2022/04/01 09:16:31;;;;;;;75.15;11.00;;;;;;;9.40;100.00;96105.13;4996289;28;20132;-56
2022/04/01 09:19:02;;;;;;;53.22;10.82;;;;;;;8.08;100.00;96103.94;4999288;28;20547;-56
2022/04/01 09:21:29;;;;;;;35.80;10.48;;;;;;;7.46;100.00;96118.00;4997035;28;20069;-56
2022/04/01 09:23:55;;;;;;;27.00;8.90;;;;;;;7.65;100.00;96119.50;4998195;28;20041;-56
2022/04/01 09:26:29;;;;;;;23.73;10.25;;;;;;;7.20;100.00;96121.25;4995245;28;20045;-56
2022/04/01 09:28:55;;;;;;;22.33;9.52;;;;;;;7.87;100.00;96117.28;4994826;28;20050;-57
2022/04/01 09:31:22;;;;;;;26.23;10.32;;;;;;;6.67;100.00;96124.22;4997645;28;20885;-57
2022/04/01 09:33:53;;;;;;;25.52;9.52;;;;;;;6.24;100.00;96125.72;4996706;28;20033;-56
2022/04/01 09:36:26;;;;;;;27.60;9.85;;;;;;;6.03;100.00;96132.84;4995041;28;20038;-56
2022/04/01 09:38:55;;;;;;;30.90;8.43;;;;;;;7.69;100.00;96139.16;4996638;28;20033;-57
2022/04/01 09:41:20;;;;;;;24.42;9.40;;;;;;;6.66;100.00;96132.91;4995900;28;20088;-56
2022/04/01 09:43:46;;;;;;;18.15;8.07;;;;;;;6.99;100.00;96144.91;5008365;28;20215;-56
2022/04/01 09:46:23;;;;;;;21.60;8.90;;;;;;;5.34;100.00;96145.78;5003904;28;20069;-57
2022/04/01 09:48:49;;;;;;;25.38;9.23;;;;;;;6.44;100.00;96148.78;5006178;28;20021;-55
2022/04/01 09:51:14;;;;;;;24.02;9.15;;;;;;;5.85;100.00;96145.00;5005119;28;20038;-56
2022/04/01 09:53:49;;;;;;;23.67;8.95;;;;;;;6.05;100.00;96147.41;5008757;28;20030;-56
2022/04/01 09:56:14;;;;;;;23.05;9.18;;;;;;;6.86;100.00;96146.53;5001631;28;20863;-56
2022/04/01 09:58:39;;;;;;;19.58;8.60;;;;;;;6.36;100.00;96138.84;5003134;28;20014;-56
2022/04/01 10:01:06;;;;;;;24.38;9.20;;;;;;;5.64;100.00;96142.56;5006662;28;20482;-57
2022/04/01 10:03:31;;;;;;;24.52;8.82;;;;;;;6.23;100.00;96143.00;5009747;28;20061;-57
2022/04/01 10:05:57;;;;;;;21.40;8.52;;;;;;;6.51;100.00;96149.28;5000972;28;20056;-58
2022/04/01 10:08:25;;;;;;;22.40;9.20;;;;;;;6.21;100.00;96152.59;5005107;28;20145;-56
2022/04/01 10:10:51;;;;;;;22.17;8.68;;;;;;;6.00;100.00;96146.81;5004697;28;20041;-57
2022/04/01 10:13:29;;;;;;;22.17;8.93;;;;;;;5.59;100.00;96150.56;5004671;28;20104;-55
2022/04/01 10:15:57;;;;;;;19.27;7.70;;;;;;;6.46;100.00;96153.88;5003576;28;20042;-58
2022/04/01 10:18:24;;;;;;;22.58;8.95;;;;;;;6.15;100.00;96143.41;5002442;28;20025;-57
2022/04/01 10:20:53;;;;;;;24.88;9.73;;;;;;;5.56;100.00;96150.72;5006927;28;20041;-56
2022/04/01 10:23:21;;;;;;;24.02;8.95;;;;;;;6.46;100.00;96146.94;5005855;28;20519;-56
2022/04/01 10:26:14;;;;;;;25.55;9.05;;;;;;;6.66;100.00;96148.44;4999856;28;20135;-56
2022/04/01 10:28:43;;;;;;;23.63;8.82;;;;;;;5.91;100.00;96147.25;5000027;28;20038;-57
2022/04/01 10:31:13;;;;;;;23.92;8.63;;;;;;;6.07;100.00;96152.50;5009461;28;20587;-56
2022/04/01 10:33:38;;;;;;;18.63;8.73;;;;;;;5.93;100.00;96146.25;5007262;28;20071;-59
2022/04/01 10:36:31;;;;;;;23.80;9.90;;;;;;;6.17;100.00;96145.91;5005429;28;20471;-56
2022/04/01 10:39:05;;;;;;;20.80;9.25;;;;;;;5.67;100.00;96152.75;5001060;28;20030;-57
2022/04/01 10:41:32;;;;;;;25.42;9.38;;;;;;;6.53;100.00;96147.44;5005631;28;20125;-56
2022/04/01 10:43:58;;;;;;;22.05;8.70;;;;;;;6.45;100.00;96149.59;5004957;28;20030;-55
2022/04/01 10:46:23;;;;;;;26.35;9.70;;;;;;;6.50;100.00;96150.19;5002457;28;20046;-57
2022/04/01 10:52:14;;;;;;;27.77;10.15;;;;;;;6.92;100.00;96151.34;5006720;28;20053;-54
2022/04/01 10:54:44;;;;;;;24.55;8.77;;;;;;;6.58;100.00;96150.63;5005399;28;20108;-56
2022/04/01 10:57:25;;;;;;;28.83;10.13;;;;;;;5.96;100.00;96151.31;5000234;28;20512;-56
2022/04/01 10:59:52;;;;;;;22.15;8.52;;;;;;;6.46;100.00;96146.94;5004291;28;20088;-55
2022/04/01 11:02:19;;;;;;;22.13;9.05;;;;;;;6.42;100.00;96155.78;5004993;28;20034;-55
2022/04/01 11:04:47;;;;;;;30.15;10.93;;;;;;;6.40;100.00;96151.63;5001348;28;20022;-54
2022/04/01 11:07:22;;;;;;;25.52;10.60;;;;;;;6.12;100.00;96158.25;5006123;28;20046;-56
2022/04/01 11:09:49;;;;;;;25.05;10.18;;;;;;;6.80;100.00;96160.66;5001613;28;20033;-56
2022/04/01 11:12:14;;;;;;;27.05;10.20;;;;;;;6.93;100.00;96168.56;5004042;28;20208;-55
2022/04/01 11:14:58;;;;;;;24.35;10.10;;;;;;;6.89;100.00;96174.84;5005844;28;20104;-55
2022/04/01 11:17:27;;;;;;;27.40;9.93;;;;;;;6.21;100.00;96170.72;5002717;28;20081;-56
2022/04/01 11:20:13;;;;;;;23.30;8.45;;;;;;;7.00;100.00;96171.66;5003672;28;20060;-56
2022/04/01 11:22:54;;;;;;;21.75;8.73;;;;;;;6.17;100.00;96182.16;5002295;28;20133;-55
2022/04/01 11:25:22;;;;;;;28.02;9.20;;;;;;;6.24;100.00;96175.72;5004175;28;20496;-55
2022/04/01 11:28:14;;;;;;;24.80;9.70;;;;;;;6.06;100.00;96174.09;5002439;28;20034;-55
2022/04/01 11:30:39;;;;;;;20.92;8.82;;;;;;;5.89;100.00;96173.19;5003365;28;20137;-55
2022/04/01 11:33:12;;;;;;;24.70;8.00;;;;;;;6.35;100.00;96175.16;5004391;28;20117;-54
2022/04/01 11:35:40;;;;;;;20.88;7.57;;;;;;;6.24;100.00;96173.13;5001859;28;20033;-54